Date,TemperatureHighF,TemperatureAvgF,TemperatureLowF,DewpointHighF,DewpointAvgF,DewpointLowF,HumidityHigh,HumidityAvg,HumidityLow,PressureMaxIn,PressureMinIn,WindSpeedMaxMPH,WindSpeedAvgMPH,GustSpeedMaxMPH,PrecipitationSumIn
2013-1-1,28.8,22.3,14.4,15.9,5.3,-2.3,62,48,33,30.09,29.94,8,2,14,0.00
2013-1-2,25.7,18.4,9.1,12.8,7.5,-1.1,69,62,52,30.14,30.03,6,2,9,0.00
2013-1-3,29.7,21.0,10.2,21.9,10.1,-2.8,75,62,51,30.11,29.99,10,4,14,0.00
2013-1-4,30.6,26.3,21.6,20.5,13.6,9.3,72,59,48,30.13,29.97,15,8,23,0.00
2013-1-5,32.2,23.5,14.9,28.2,15.9,7.5,85,72,59,30.23,29.95,11,3,17,0.00
2013-1-6,35.6,33.3,32.2,29.4,26.5,21.0,85,76,63,30.19,29.83,11,5,17,0.00
2013-1-7,34.9,30.9,25.3,22.1,19.9,16.9,72,64,56,30.32,30.09,13,4,19,0.00
2013-1-8,35.6,27.6,19.8,23.6,19.1,13.3,78,70,58,30.19,30.09,8,2,11,0.00
2013-1-9,46.9,37.9,26.4,31.5,23.6,15.8,82,58,30,30.39,29.96,17,6,24,0.00
2013-1-10,38.8,33.3,26.4,29.1,23.5,18.2,78,67,58,30.51,30.10,12,3,14,0.09
2013-1-11,58.3,44.7,34.7,51.3,40.2,29.2,96,84,66,30.09,29.66,13,4,19,0.72
2013-1-12,59.5,50.1,43.9,50.3,45.8,41.4,93,85,67,29.84,29.72,11,3,16,0.01
2013-1-13,50.9,38.8,30.7,49.3,36.2,25.9,95,90,82,29.98,29.60,11,4,15,0.53
2013-1-14,30.6,23.9,16.5,25.7,13.3,8.2,82,64,54,30.38,29.98,0,0,0,0.00
2013-1-15,30.0,22.2,13.1,19.4,12.0,6.1,76,65,51,30.39,30.08,5,0,8,0.00
2013-1-16,38.1,29.1,19.0,22.4,14.0,6.4,76,56,28,30.08,29.73,17,5,24,0.00
2013-1-17,38.3,30.9,20.1,24.4,14.4,-3.7,69,51,30,30.26,29.87,15,6,21,0.00
2013-1-18,34.0,26.3,16.3,18.1,8.6,-2.6,53,47,39,30.38,29.91,17,6,25,0.00
2013-1-19,48.2,40.8,33.8,31.5,24.6,18.1,64,52,44,29.91,29.50,19,9,24,0.00
2013-1-20,44.1,22.9,16.7,31.1,2.0,-10.2,60,40,26,30.13,29.47,24,11,39,0.25
2013-1-21,18.0,15.4,12.9,8.6,2.2,-3.3,70,56,40,30.09,29.89,11,5,18,0.00
2013-1-22,13.5,13.5,13.5,0.3,0.3,0.3,55,55,55,30.02,30.02,5,5,8,0.00
2013-1-23,13.5,13.5,13.5,0.3,0.3,0.3,55,55,55,30.02,30.02,5,5,8,0.00
2013-1-24,13.5,13.5,13.5,0.3,0.3,0.3,55,55,55,30.02,30.02,5,5,8,0.00
2013-1-25,13.5,13.5,13.5,0.3,0.3,0.3,55,55,55,30.02,30.02,5,5,8,0.00
2013-1-26,13.5,13.5,13.5,0.3,0.3,0.3,55,55,55,30.02,30.02,5,5,8,0.00
2013-1-27,13.5,13.5,13.5,0.3,0.3,0.3,55,55,55,30.02,30.02,5,5,8,0.00
2013-1-28,17.8,15.9,13.5,8.4,4.8,0.3,66,61,55,30.33,30.02,5,2,8,0.00
2013-1-29,17.8,17.8,17.8,8.4,8.4,8.4,66,66,66,30.33,30.33,0,0,0,0.00
2013-2-9,17.8,17.8,17.8,8.4,8.4,8.4,66,66,66,30.33,30.33,0,0,0,0.00
2013-2-13,17.8,17.8,17.8,8.4,8.4,8.4,66,66,66,30.33,30.33,0,0,0,0.00
2013-2-16,17.8,17.8,17.8,8.4,8.4,8.4,66,66,66,30.33,30.33,0,0,0,0.00
2013-2-21,17.8,17.8,17.8,8.4,8.4,8.4,66,66,66,30.33,30.33,0,0,0,0.00
2013-2-22,17.8,17.8,17.8,8.4,8.4,8.4,66,66,66,30.33,30.33,0,0,0,0.00
2013-2-25,17.8,17.8,17.8,8.4,8.4,8.4,66,66,66,30.33,30.33,0,0,0,0.00
2013-2-27,17.8,17.8,17.8,8.4,8.4,8.4,66,66,66,30.33,30.33,0,0,0,0.00
2013-2-28,17.8,17.8,17.8,8.4,8.4,8.4,66,66,66,30.33,30.33,0,0,0,0.00
2013-3-1,17.8,17.8,17.8,8.4,8.4,8.4,66,66,66,30.33,30.33,0,0,0,0.00
2013-3-3,17.8,17.8,17.8,8.4,8.4,8.4,66,66,66,30.33,30.33,0,0,0,0.00
2013-3-4,17.8,17.8,17.8,8.4,8.4,8.4,66,66,66,30.33,30.33,0,0,0,0.00
2013-3-5,17.8,17.8,17.8,8.4,8.4,8.4,66,66,66,30.33,30.33,0,0,0,0.00
2013-3-6,17.8,17.8,17.8,8.4,8.4,8.4,66,66,66,30.33,30.33,0,0,0,0.00
2013-3-7,17.8,17.8,17.8,8.4,8.4,8.4,66,66,66,30.33,30.33,0,0,0,0.00
2013-3-9,44.1,38.7,17.8,29.0,26.2,8.4,71,61,51,30.33,29.95,11,5,14,0.00
2013-3-10,63.1,49.1,35.2,41.5,33.3,26.8,74,56,40,29.95,29.67,12,4,31,0.00
2013-3-11,56.5,48.8,37.0,46.9,40.0,27.6,89,72,46,29.70,29.36,17,8,30,0.28
2013-3-12,37.0,34.0,29.7,28.5,24.7,19.1,80,69,54,29.85,29.60,17,7,24,0.00
2013-3-13,32.0,28.8,25.2,24.6,15.0,6.6,80,57,41,30.13,29.77,15,8,23,0.00
2013-3-14,42.1,31.4,21.6,16.8,10.9,5.2,61,43,23,30.19,30.00,12,4,17,0.00
2013-3-15,41.9,35.4,31.6,30.9,25.3,15.8,83,67,51,30.01,29.75,10,4,16,0.07
2013-3-16,33.3,29.9,27.3,29.2,23.1,17.9,87,76,62,29.97,29.66,6,0,11,0.02
2013-3-17,33.1,27.1,20.1,20.1,10.8,3.4,69,51,34,30.19,29.96,11,4,16,0.04
2013-3-18,34.9,30.2,23.2,31.7,23.0,10.4,88,75,57,30.11,29.45,14,6,21,0.11
2013-3-19,34.9,27.0,22.6,27.6,11.5,4.7,76,52,42,29.88,29.53,20,10,29,0.01
2013-3-20,28.9,24.3,17.1,11.0,6.1,-99.9,56,46,33,29.89,29.81,14,7,20,0.62
2013-3-21,31.5,23.6,14.7,17.7,11.2,2.7,68,59,46,29.88,29.78,15,6,19,0.00
2013-3-22,41.5,31.4,25.7,17.5,13.7,9.7,60,48,33,29.94,29.84,10,3,13,0.00
2013-3-23,39.0,30.5,22.8,20.9,16.3,13.4,72,56,41,30.02,29.94,8,2,11,0.00
2013-3-24,36.7,30.6,24.8,21.8,17.5,11.7,74,59,39,29.96,29.53,15,5,24,0.62
2013-3-25,39.7,34.1,29.5,25.7,21.7,17.7,80,61,48,29.81,29.45,12,6,21,0.00
2013-3-26,43.7,36.7,32.9,26.8,23.3,20.2,67,58,40,30.00,29.82,12,6,17,0.00
2013-3-27,46.6,39.2,30.4,22.8,19.4,15.1,70,46,30,30.13,30.04,0,0,0,0.00
2013-3-28,52.3,40.8,30.6,23.0,18.1,13.7,62,42,22,30.19,30.10,0,0,0,0.00
2013-3-29,53.2,40.3,29.7,21.0,14.4,8.6,56,38,17,30.22,30.08,0,0,0,0.62
2013-3-30,55.9,50.4,42.1,26.3,15.8,6.5,49,27,14,30.10,29.83,0,0,0,0.00
2013-3-31,59.5,46.7,37.0,41.5,28.4,18.0,84,52,20,29.83,29.50,0,0,0,0.04
2013-4-1,42.6,33.5,26.6,27.6,6.0,-3.7,60,33,17,30.04,29.61,0,0,0,0.00
2013-4-2,42.3,31.1,22.3,13.7,4.3,-3.2,62,34,18,30.18,30.02,17,6,21,0.00
2013-4-3,43.9,32.7,23.9,10.3,4.0,-3.6,50,31,17,30.34,30.17,14,3,19,0.00
2013-4-4,55.9,39.8,24.1,11.8,7.1,3.1,45,28,14,30.31,29.85,11,3,16,0.00
2013-4-5,49.1,42.8,33.4,26.4,12.0,1.8,65,31,16,30.13,29.84,14,3,17,0.00
2013-4-6,51.6,39.9,29.5,26.6,16.8,6.8,55,41,21,30.18,29.68,15,6,22,0.00
2013-4-7,59.2,53.4,41.5,42.0,32.2,13.4,60,46,19,29.93,29.51,16,8,25,0.00
2013-4-8,69.3,47.3,35.4,54.4,37.2,26.2,84,69,48,29.96,29.56,18,4,24,0.17
2013-4-9,57.2,48.1,42.3,44.1,40.9,37.6,86,76,61,30.00,29.75,11,3,14,0.00
2013-4-10,48.6,43.7,39.7,43.5,40.5,37.6,92,89,82,29.88,29.75,9,2,14,0.33
2013-4-11,39.7,38.1,36.5,37.6,34.9,32.2,94,88,82,29.90,29.52,17,7,23,1.21
2013-4-12,41.5,38.8,36.1,38.4,33.2,28.6,92,80,61,29.69,29.42,14,5,24,0.35
2013-4-13,41.5,38.9,36.1,36.0,27.8,21.8,85,65,46,29.90,29.68,15,6,21,0.02
2013-4-14,49.1,40.1,32.4,31.8,27.5,23.7,72,61,50,30.03,29.85,13,3,17,0.00
2013-4-15,68.5,54.8,37.4,51.1,42.2,30.4,79,64,47,29.87,29.74,14,4,22,0.00
2013-4-16,62.2,54.9,48.4,50.3,39.3,24.8,89,60,30,30.12,29.75,11,4,18,0.25
2013-4-17,57.7,48.1,41.5,39.9,32.2,26.4,87,55,38,30.24,29.95,10,1,15,0.62
2013-4-18,78.1,58.0,43.5,61.9,51.9,39.9,92,81,54,29.94,29.44,21,4,34,0.88
2013-4-19,59.0,45.1,36.9,56.8,36.9,24.5,93,74,55,29.68,29.22,23,9,36,0.32
2013-4-20,40.8,35.2,30.9,28.7,16.6,7.6,80,48,30,30.38,29.67,14,7,22,0.00
2013-4-21,46.4,36.8,24.8,23.4,16.9,3.0,65,46,17,30.54,30.37,12,4,16,0.00
2013-4-22,61.9,46.4,31.1,35.9,25.3,15.7,82,49,17,30.40,30.08,10,3,14,0.00
2013-4-23,71.6,55.0,40.3,53.0,38.6,29.3,91,58,29,30.10,29.69,16,4,24,0.19
2013-4-24,55.0,40.9,34.7,53.2,35.9,22.8,94,83,57,30.07,29.62,0,0,0,5.36
2013-4-25,52.0,40.6,31.6,37.2,26.9,16.9,82,60,26,30.27,30.02,0,0,0,0.08
2013-4-26,60.1,45.9,29.8,35.6,27.6,19.9,71,51,28,30.37,30.23,0,0,0,0.00
2013-4-27,68.9,53.7,36.7,42.7,33.7,19.4,89,53,15,30.28,30.00,0,0,0,5.44
2013-4-28,53.8,51.8,49.3,52.9,45.8,32.1,98,82,49,30.00,29.72,0,0,1,0.26
2013-4-29,70.5,59.9,51.8,57.1,52.8,50.5,99,80,50,29.83,29.72,4,0,8,0.04
2013-4-30,73.8,62.2,52.9,55.4,53.5,51.3,96,75,51,29.95,29.82,0,0,0,0.00
2013-5-1,81.1,67.2,53.4,57.3,53.6,50.7,94,65,38,30.12,29.95,0,0,0,0.00
2013-5-2,78.8,66.1,54.5,53.4,49.6,41.9,85,58,35,30.13,30.00,0,0,0,0.00
2013-5-3,76.3,66.0,54.5,56.2,43.4,17.2,73,48,12,30.03,29.91,0,0,0,0.00
2013-5-4,70.7,62.5,54.1,48.9,39.1,26.0,78,45,21,30.01,29.92,0,0,0,0.00
2013-5-5,72.1,61.1,52.7,45.7,35.9,19.2,67,43,14,29.99,29.88,0,0,0,0.00
2013-5-6,75.0,62.0,49.5,49.9,42.1,36.8,69,49,33,29.95,29.83,0,0,0,0.00
2013-5-7,75.7,63.7,52.0,53.7,47.7,39.9,79,57,37,29.94,29.84,0,0,0,0.00
2013-5-8,81.0,65.1,52.9,57.5,49.0,41.2,81,59,26,29.92,29.80,0,0,0,0.04
2013-5-9,82.6,67.6,50.9,56.0,49.5,36.7,99,59,20,29.86,29.75,0,0,0,0.00
2013-5-10,72.1,59.6,43.7,62.5,54.4,40.4,99,83,57,29.81,29.61,0,0,0,0.43
2013-5-11,61.0,47.3,37.8,48.6,41.7,32.5,98,82,50,29.83,29.62,0,0,0,0.04
2013-5-12,48.4,41.2,32.2,33.9,27.9,21.8,87,61,40,30.02,29.80,0,0,0,0.02
2013-5-13,55.9,42.7,28.4,27.3,19.8,8.0,83,46,15,30.08,29.99,0,0,0,0.00
2013-5-14,79.5,59.7,41.7,54.0,39.7,27.3,71,50,31,30.02,29.58,0,0,0,0.00
2013-5-15,83.3,72.6,58.3,60.4,47.0,33.2,82,46,18,29.67,29.47,0,0,0,0.00
2013-5-16,83.8,69.5,52.5,46.5,40.7,31.5,70,39,16,29.91,29.66,0,0,0,6.27
2013-5-17,74.8,62.5,50.4,47.4,41.1,32.4,70,47,26,30.03,29.91,0,0,0,0.00
2013-5-18,79.5,64.8,54.1,49.9,43.7,32.9,67,48,28,30.04,29.90,0,0,0,0.00
2013-5-19,87.4,70.2,53.1,62.9,55.1,44.0,82,60,39,29.95,29.73,0,0,0,0.00
2013-5-20,91.4,76.6,61.5,69.9,62.5,57.1,98,66,33,29.81,29.62,0,0,0,0.00
2013-5-21,85.6,76.9,68.5,68.1,61.5,55.8,86,62,39,29.70,29.57,0,0,0,0.00
2013-5-22,81.0,69.5,61.2,65.9,61.7,56.0,97,77,43,29.63,29.49,0,0,0,0.08
2013-5-23,66.6,54.9,44.1,61.7,53.2,41.4,99,94,73,30.06,29.58,0,0,0,0.15
2013-5-24,57.4,47.4,39.4,43.0,36.0,31.9,99,68,41,30.26,30.06,0,0,0,0.00
2013-5-25,67.5,52.1,34.5,40.2,33.7,27.0,99,56,23,30.31,30.15,0,0,0,0.00
2013-5-26,71.6,56.2,35.8,44.9,31.8,19.0,97,49,14,30.27,30.09,0,0,1,6.51
2013-5-27,58.6,51.7,47.5,52.0,43.0,33.4,99,74,48,30.17,29.89,0,0,0,1.13
2013-5-28,78.3,64.7,51.8,71.5,61.1,51.3,99,89,71,29.90,29.68,0,0,1,0.16
2013-5-29,83.5,75.8,68.5,67.2,63.7,58.2,87,68,44,29.87,29.66,0,0,0,7.80
2013-5-30,87.6,75.4,65.8,71.3,65.6,61.2,93,73,47,29.95,29.82,0,0,0,0.17
2013-5-31,80.8,72.8,68.2,70.0,67.2,65.1,99,84,60,29.89,29.74,0,0,0,0.14
2013-6-1,78.8,70.2,63.1,69.3,63.9,59.7,99,82,58,29.76,29.58,0,0,0,0.22
2013-6-2,71.2,65.6,54.7,66.7,57.0,44.3,98,75,60,29.87,29.54,0,0,0,0.00
2013-6-3,69.3,57.3,42.4,44.2,38.5,30.8,86,53,29,29.97,29.88,7,2,9,0.00
2013-6-4,66.2,61.5,58.5,48.0,44.8,33.0,63,55,38,30.08,30.03,6,2,8,0.00
2013-6-5,74.8,62.1,52.2,48.3,41.5,27.2,79,48,29,30.07,29.87,8,2,15,0.00
2013-6-6,71.1,61.3,54.0,53.9,48.0,40.9,79,62,51,29.90,29.71,8,2,11,0.00
2013-6-7,61.9,56.0,51.3,53.4,50.9,47.8,97,83,70,29.81,29.76,6,2,10,0.00
2013-6-8,74.7,63.8,55.2,55.4,52.8,49.7,93,70,43,29.96,29.79,4,0,5,0.00
2013-6-9,77.2,67.6,58.6,60.1,56.7,52.8,91,70,43,29.99,29.82,11,3,17,0.00
2013-6-10,71.6,66.0,61.2,68.4,64.1,56.9,99,94,73,29.84,29.60,7,2,11,1.01
2013-6-11,82.2,72.4,64.6,66.5,63.9,60.4,99,77,50,29.76,29.64,7,1,11,0.00
2013-6-12,80.4,71.0,61.5,70.5,65.3,60.1,97,83,63,29.81,29.51,4,0,6,0.02
2013-6-13,78.4,69.4,61.2,67.2,58.8,51.3,99,73,41,29.81,29.38,0,0,0,1.35
2013-6-14,78.1,68.2,59.4,60.2,54.1,47.4,93,64,35,29.95,29.80,0,0,0,0.00
2013-6-15,80.1,67.3,55.2,62.2,57.7,53.4,97,74,43,29.99,29.81,0,0,0,0.00
2013-6-16,82.9,72.2,64.0,66.3,61.5,50.7,99,72,40,29.82,29.67,0,0,0,0.24
2013-6-17,87.4,74.0,57.9,65.3,56.8,51.5,91,59,30,29.81,29.68,0,0,0,0.00
2013-6-18,72.7,65.5,58.1,63.0,53.2,41.1,99,68,36,29.96,29.76,0,0,0,0.09
2013-6-19,76.5,63.2,49.5,53.3,46.7,38.8,78,56,37,30.06,29.96,0,0,0,11.05
2013-6-20,83.5,68.0,50.5,57.0,51.8,45.7,98,61,30,30.11,30.01,0,0,0,0.00
2013-6-21,87.3,74.0,60.4,63.3,58.2,52.8,89,61,32,30.10,29.90,0,0,0,0.00
2013-6-22,88.9,75.5,69.1,72.8,66.3,56.4,92,74,57,29.97,29.85,0,0,0,0.27
2013-6-23,89.4,78.8,68.7,69.9,66.8,62.6,95,70,42,29.95,29.82,0,0,0,11.32
2013-6-24,88.7,78.6,67.6,70.4,67.2,63.3,94,70,49,29.94,29.79,0,0,0,0.11
2013-6-25,85.3,74.2,66.4,72.6,68.9,64.8,99,85,62,29.90,29.67,0,0,1,0.56
2013-6-26,83.3,73.5,66.0,71.1,68.2,65.1,99,85,56,29.80,29.60,0,0,1,0.29
2013-6-27,82.9,72.1,66.0,73.0,68.9,61.9,99,91,64,29.65,29.50,0,0,0,0.45
2013-6-28,79.3,67.4,62.4,70.8,64.0,59.1,99,90,58,29.52,29.37,3,0,4,0.53
2013-6-29,74.3,65.9,61.0,68.1,63.6,60.4,99,93,70,29.62,29.42,0,0,0,0.42
2013-6-30,68.5,61.8,59.4,62.3,59.3,57.2,98,92,76,29.71,29.62,0,0,0,0.00
2013-7-3,83.1,78.1,71.2,68.9,65.6,60.3,89,67,47,29.97,29.91,0,0,0,0.00
2013-7-4,80.2,73.4,66.4,69.1,65.4,60.9,99,78,53,30.01,29.94,0,0,0,0.00
2013-7-5,84.9,74.9,69.3,71.2,67.1,60.3,99,79,45,29.99,29.91,0,0,0,0.06
2013-7-6,82.9,73.4,67.3,72.5,69.3,67.0,99,88,62,29.99,29.87,0,0,0,0.12
2013-7-7,81.0,73.0,68.2,70.4,68.5,65.8,99,87,63,29.92,29.83,2,0,3,0.33
2013-7-8,82.8,72.6,66.2,75.8,69.6,65.9,99,91,69,29.93,29.83,2,0,4,0.11
2013-7-9,88.5,76.2,70.9,76.3,71.5,69.6,99,87,59,29.87,29.76,0,0,0,0.09
2013-7-10,87.8,75.9,67.8,79.1,70.3,58.0,99,84,50,29.82,29.63,0,0,0,0.85
2013-7-11,80.4,70.4,61.3,58.8,55.5,51.7,86,62,39,29.96,29.82,7,2,11,0.00
2013-7-12,81.9,68.9,55.4,62.4,58.5,54.7,99,73,41,30.04,29.95,6,1,11,0.00
2013-7-13,82.9,73.2,61.7,66.1,62.9,58.8,95,72,48,30.11,30.02,9,2,14,0.00
2013-7-14,88.7,77.8,66.9,71.4,68.1,63.8,94,74,49,30.14,30.07,7,2,10,0.00
2013-7-15,93.0,79.8,70.2,77.2,73.1,69.6,99,82,52,30.18,30.07,6,1,10,15.72
2013-7-16,92.7,83.3,75.2,79.3,74.3,71.0,99,77,51,30.19,30.09,6,1,8,0.74
2013-7-17,93.4,83.4,73.9,76.4,73.5,71.1,93,74,51,30.17,30.01,7,1,9,0.00
2013-7-18,94.6,83.5,72.0,76.7,73.0,65.9,98,73,44,30.05,29.83,8,1,11,16.47
2013-7-19,92.7,83.2,75.4,75.3,72.4,68.2,93,72,46,29.85,29.59,14,5,21,0.06
2013-7-20,87.4,77.2,68.5,75.6,66.9,58.4,99,74,39,29.80,29.59,14,2,24,0.54
2013-7-21,84.7,74.2,64.4,66.7,61.9,55.1,90,67,45,29.88,29.77,6,2,11,0.00
2013-7-22,81.9,73.3,68.2,70.3,67.1,64.3,96,82,57,29.84,29.63,6,1,8,0.04
2013-7-23,85.1,71.1,60.1,71.9,65.7,51.4,99,85,54,29.76,29.52,12,2,18,0.32
2013-7-24,73.9,64.4,57.2,54.2,50.9,47.4,83,63,42,29.94,29.77,8,2,14,0.00
2013-7-25,77.9,64.7,50.4,57.2,52.6,46.1,99,69,34,30.00,29.93,0,0,0,0.00
2013-7-26,79.3,68.1,55.9,61.0,57.3,54.1,95,71,45,30.00,29.79,0,0,0,0.00
2013-7-27,73.9,65.7,55.4,68.8,62.4,51.8,99,89,68,29.80,29.59,0,0,0,0.42
2013-7-28,66.0,57.7,50.0,55.4,52.0,49.2,99,83,56,29.89,29.73,0,0,0,17.88
2013-7-29,71.1,60.9,53.8,58.2,54.4,52.2,97,81,53,30.08,29.89,0,0,0,0.00
2013-7-30,78.8,65.7,49.8,61.9,56.2,49.6,99,75,45,30.13,30.00,5,1,7,0.00
2013-7-31,77.2,69.3,64.6,68.2,65.0,61.0,99,87,65,30.01,29.77,4,0,5,0.08
2013-8-1,80.1,69.4,60.6,66.6,60.9,53.1,99,77,41,29.82,29.73,0,0,0,0.01
2013-8-2,72.3,64.3,53.4,65.3,58.9,51.9,97,83,65,29.84,29.72,0,0,0,0.00
2013-8-3,79.5,70.5,59.5,64.9,57.7,48.0,99,69,34,29.93,29.78,0,0,0,0.00
2013-8-4,75.4,65.3,55.2,54.9,52.9,49.4,92,66,43,30.04,29.94,0,0,0,0.00
2013-8-5,71.8,63.4,52.0,59.4,54.7,49.2,94,74,52,30.02,29.85,0,0,0,0.00
2013-8-6,78.8,69.6,62.4,70.5,63.5,58.4,97,82,64,29.86,29.76,8,1,9,0.11
2013-8-7,84.2,72.1,64.0,72.6,67.7,63.2,99,87,58,29.81,29.68,0,0,0,0.15
2013-8-8,77.5,71.0,66.2,70.3,64.7,60.0,98,81,63,29.89,29.77,0,0,0,0.00
2013-8-9,81.5,71.2,61.3,62.3,57.2,51.4,90,64,38,29.90,29.81,0,0,0,0.00
2013-8-10,77.9,69.2,62.2,63.2,60.7,57.4,92,76,50,30.01,29.90,0,0,0,0.00
2013-8-11,81.1,69.5,55.0,64.1,57.4,53.6,99,69,39,30.03,29.89,0,0,0,0.00
2013-8-12,75.0,66.9,63.3,71.2,63.8,58.2,99,90,71,29.96,29.72,0,0,0,1.23
2013-8-13,68.5,62.7,55.6,64.7,52.9,44.0,99,74,44,29.95,29.71,0,0,0,0.01
2013-8-14,71.8,59.3,48.6,51.0,47.7,44.2,91,68,41,30.06,29.95,0,0,0,0.00
2013-8-15,74.7,61.3,47.3,57.1,50.8,25.1,99,73,25,30.09,29.96,0,0,0,0.00
2013-8-16,79.9,65.9,51.4,57.9,53.8,51.1,99,69,39,30.10,30.00,0,0,0,0.00
2013-8-17,79.3,66.6,52.7,59.7,55.0,51.7,98,70,39,30.17,30.05,0,0,0,0.00
2013-8-18,82.2,69.4,57.9,67.6,58.8,54.8,99,73,40,30.10,29.98,0,0,0,0.00
2013-8-19,84.0,70.0,55.2,65.5,58.5,54.4,99,71,40,30.03,29.90,0,0,0,0.00
2013-8-20,86.2,72.8,59.2,67.1,63.3,58.9,99,75,45,30.03,29.94,0,0,0,0.00
2013-8-21,86.5,75.1,63.5,70.4,66.1,62.0,97,76,49,30.04,29.86,0,0,0,0.00
2013-8-22,81.5,73.6,68.9,69.9,67.7,65.4,96,83,61,29.92,29.85,7,1,10,0.05
2013-8-23,83.1,72.5,61.7,68.3,55.0,41.1,96,60,24,30.09,29.91,4,1,7,0.00
2013-8-24,82.0,68.9,55.2,66.8,57.3,53.2,97,69,39,30.20,30.09,2,0,4,0.00
2013-8-25,86.7,71.7,56.3,64.4,60.4,56.0,99,71,41,30.21,30.01,9,0,11,0.00
2013-8-26,88.2,75.9,63.1,72.0,66.5,60.5,94,74,53,30.06,29.84,0,0,0,0.00
2013-8-27,85.1,75.9,70.7,76.7,72.7,69.3,99,90,76,29.89,29.71,7,0,12,0.57
2013-8-28,83.3,77.3,71.6,76.0,72.8,68.4,99,87,70,29.88,29.66,0,0,0,0.13
2013-8-29,87.4,76.0,66.0,71.4,68.8,65.7,99,80,54,29.95,29.87,7,1,8,0.00
2013-8-30,87.8,75.8,64.0,72.2,67.4,63.2,99,78,49,29.89,29.61,10,2,17,0.02
2013-8-31,85.1,75.0,69.6,72.5,69.1,66.0,99,83,56,29.71,29.60,5,1,8,20.65
2013-9-1,84.2,74.3,68.7,72.4,68.6,66.0,93,83,60,29.73,29.57,7,2,10,0.00
2013-9-2,78.3,70.4,61.3,69.1,60.9,-99.9,99,75,50,29.81,29.60,11,3,60,20.65
2013-9-3,75.9,64.3,58.1,55.8,52.7,50.4,86,68,43,29.91,29.80,8,2,11,0.00
2013-9-4,80.4,67.4,53.8,61.2,57.0,52.6,99,72,44,29.99,29.88,8,2,11,0.00
2013-9-5,72.1,63.6,53.8,61.6,50.0,41.4,92,65,36,30.16,29.96,9,2,13,0.00
2013-9-6,76.3,60.7,45.7,55.2,48.4,39.4,99,69,34,30.20,29.97,6,1,8,0.00
2013-9-7,83.7,67.4,54.9,69.7,60.2,49.0,92,78,54,29.97,29.76,7,1,11,20.66
2013-9-8,75.9,69.3,58.8,67.2,59.9,50.7,92,73,48,29.96,29.80,8,2,13,0.00
2013-9-9,79.9,64.8,54.1,71.9,61.4,48.9,99,89,74,29.97,29.77,6,1,8,21.00
2013-9-10,94.3,81.1,68.7,73.8,69.0,64.7,99,71,40,29.89,29.77,9,2,17,0.00
2013-9-11,92.5,78.1,68.9,73.2,68.4,64.3,97,74,46,29.93,29.75,11,2,17,0.05
2013-9-12,80.6,69.8,57.4,69.1,60.7,48.1,99,76,39,29.85,29.70,13,2,21,0.00
2013-9-13,61.0,54.2,43.2,48.5,43.9,39.2,89,69,49,30.06,29.85,11,3,16,21.05
2013-9-14,69.6,53.2,37.2,49.5,39.5,31.2,99,67,25,30.10,29.97,6,1,9,0.00
2013-9-15,66.7,54.7,45.1,55.3,49.6,43.5,99,85,52,30.04,29.92,5,1,7,0.07
2013-9-16,64.0,56.3,47.8,55.3,49.4,42.6,99,80,49,30.28,30.01,8,2,14,0.02
2013-9-17,67.5,51.6,37.8,51.8,42.2,35.7,99,74,34,30.32,30.12,9,2,14,0.00
2013-9-18,76.3,59.6,46.9,58.9,51.7,45.3,99,78,43,30.13,29.90,9,2,11,0.00
2013-9-19,81.5,67.7,57.2,68.3,63.3,56.9,99,87,60,29.94,29.78,8,2,11,0.00
2013-9-20,81.5,71.4,65.5,73.4,68.5,65.2,99,92,66,29.79,29.61,10,3,14,21.14
2013-9-21,70.0,62.8,56.5,65.2,54.8,43.9,99,78,41,29.76,29.56,8,3,15,0.00
2013-9-22,61.3,53.7,44.2,47.6,41.5,38.3,87,64,49,29.99,29.76,8,2,13,0.00
2013-9-23,63.7,51.5,42.6,47.1,43.1,40.5,98,76,46,30.09,29.99,8,1,10,0.00
2013-9-24,68.0,53.9,43.3,52.2,47.5,42.8,99,81,50,30.06,29.87,8,1,10,0.00
2013-9-25,71.6,58.5,48.6,55.1,51.0,47.1,99,78,50,29.96,29.80,8,2,11,0.00
2013-9-26,76.6,61.0,48.9,57.6,48.6,43.9,99,69,32,30.04,29.88,6,1,9,0.00
2013-9-27,75.6,60.1,46.9,59.6,52.8,46.6,99,79,50,30.12,30.02,9,0,12,0.00
2013-9-28,78.4,64.4,52.7,62.8,55.9,50.1,99,78,38,30.09,29.90,10,3,14,0.00
2013-9-29,63.1,59.8,57.4,62.3,57.7,53.3,99,93,82,29.92,29.83,4,1,7,0.00
2013-9-30,71.1,61.8,54.5,62.9,55.6,49.9,99,82,48,29.91,29.79,11,1,14,0.00
2013-10-1,69.1,59.2,50.5,63.7,56.9,50.3,99,92,75,29.92,29.82,11,2,17,0.00
2013-10-2,82.0,67.5,57.4,64.8,53.7,42.0,99,69,25,29.95,29.84,4,1,6,0.00
2013-10-3,76.6,66.5,57.4,68.3,61.7,52.9,95,85,71,29.95,29.79,11,2,17,0.00
2013-10-4,80.6,70.4,64.4,69.0,65.1,62.1,99,85,54,29.92,29.83,7,2,9,0.00
2013-10-5,74.1,69.1,65.1,69.3,66.9,64.6,99,93,80,29.92,29.74,7,2,10,0.00
2013-10-6,70.7,66.9,55.2,68.6,65.9,50.2,99,97,56,29.92,29.50,10,3,13,21.24
2013-10-7,60.8,51.7,43.2,54.2,45.0,-99.9,98,80,55,30.03,29.58,14,4,24,21.42
2013-10-8,68.9,53.7,39.0,53.8,42.9,37.0,99,72,32,30.18,30.03,8,2,14,0.00
2013-10-9,69.8,55.3,41.0,56.4,45.2,38.3,99,74,33,30.22,30.10,1,0,2,0.00
2013-10-10,72.9,56.5,42.4,56.4,44.4,30.0,99,71,21,30.14,30.00,0,0,0,0.00
2013-10-11,74.7,57.5,42.1,53.7,47.7,41.8,99,74,40,30.05,29.93,0,0,1,0.00
2013-10-12,77.7,62.9,50.2,61.7,52.8,41.4,99,75,28,30.00,29.89,0,0,0,0.00
2013-10-13,70.0,60.2,49.5,59.1,45.5,32.3,99,64,26,30.25,29.97,0,0,0,0.00
2013-10-14,64.8,53.3,45.1,47.3,42.3,39.8,96,69,41,30.32,30.16,0,0,0,0.00
2013-10-15,63.9,54.5,42.4,61.5,51.8,41.6,99,91,78,30.18,29.72,9,3,12,0.05
2013-10-16,62.2,57.1,51.6,61.7,50.4,42.4,99,80,52,29.82,29.69,11,4,17,0.01
2013-10-17,51.6,48.8,44.1,50.3,46.9,43.2,99,93,82,29.80,29.65,11,3,17,0.16
2013-10-18,63.7,50.6,38.7,47.7,42.1,36.1,99,77,36,29.82,29.71,12,3,18,0.08
2013-10-19,47.8,42.8,37.4,44.8,40.1,35.1,99,90,69,29.82,29.65,10,2,16,0.16
2013-10-20,60.6,48.5,36.7,42.4,38.5,33.9,96,71,41,29.81,29.73,13,3,17,21.89
2013-10-21,54.0,49.7,39.9,48.7,42.9,34.6,92,78,62,29.77,29.70,10,4,16,21.93
2013-10-22,50.7,40.9,30.4,35.4,29.5,26.0,86,65,42,29.85,29.76,11,3,17,0.00
2013-10-23,48.4,38.4,31.1,38.5,30.3,20.9,97,75,35,29.85,29.73,8,2,12,0.00
2013-10-24,47.8,37.6,31.5,36.2,29.5,22.9,93,75,40,30.10,29.84,10,2,15,0.00
2013-10-25,47.8,38.0,31.3,38.5,29.3,24.3,97,73,45,30.25,30.04,12,3,14,0.00
2013-10-26,48.7,42.1,34.9,38.4,30.0,25.1,93,63,50,30.04,29.69,15,6,25,0.09
2013-10-27,54.1,41.0,30.6,38.4,30.4,24.4,94,69,32,29.99,29.87,11,1,15,0.01
2013-10-28,52.0,41.9,30.6,39.7,32.6,25.1,83,70,60,30.30,29.94,10,2,14,0.00
2013-10-29,52.9,44.2,36.5,38.0,33.7,28.0,82,67,54,30.35,30.15,8,2,11,0.00
2013-10-30,64.6,48.9,33.4,51.0,40.1,30.8,97,74,42,30.15,29.85,8,2,11,0.16
2013-10-31,62.1,59.3,52.7,61.5,58.8,51.0,99,98,94,29.85,29.04,16,6,22,23.51
2013-11-1,60.4,48.9,44.6,60.2,43.7,38.2,99,82,69,29.57,29.01,18,6,27,0.06
2013-11-2,48.4,44.6,37.9,44.3,40.6,33.8,98,86,70,30.01,29.55,7,2,9,0.14
2013-11-3,46.9,38.4,31.5,34.9,30.5,27.3,89,74,53,30.36,30.00,8,2,11,0.01
2013-11-4,48.2,41.1,34.2,34.8,30.0,22.7,83,66,37,30.39,30.21,14,4,21,0.00
2013-11-5,54.0,48.1,40.3,47.1,41.7,32.6,87,79,67,30.27,30.07,5,2,8,0.00
2013-11-6,55.8,51.9,42.8,52.3,45.6,38.9,92,80,60,30.07,29.70,16,6,26,0.13
2013-11-7,46.4,40.6,35.4,39.4,28.8,21.5,89,65,39,30.06,29.89,13,5,22,0.00
2013-11-8,45.3,37.7,32.0,29.4,24.7,17.1,82,61,33,30.20,30.04,8,2,12,0.00
2013-11-9,57.4,48.0,35.6,38.6,32.6,26.1,74,56,44,30.10,29.68,17,7,26,23.85
2013-11-10,48.9,43.2,34.7,36.5,26.8,23.5,68,53,43,30.20,29.79,15,5,22,0.00
2013-11-11,45.0,36.3,28.2,37.3,29.0,16.5,90,75,61,30.24,29.93,13,4,19,0.13
2013-11-12,34.5,28.2,23.2,18.4,13.1,8.4,68,53,34,30.49,30.24,14,5,18,0.00
2013-11-13,40.1,29.0,18.7,19.6,12.6,-0.1,76,52,20,30.49,30.09,13,5,21,0.00
2013-11-14,51.1,38.2,29.5,21.5,17.0,13.1,56,43,22,30.11,29.90,15,7,21,0.00
2013-11-15,51.3,41.2,32.9,29.3,23.3,-99.9,64,51,33,29.99,29.89,11,3,61,23.98
2013-11-16,57.9,46.4,35.1,51.4,39.2,26.4,85,76,64,30.02,29.69,13,4,17,0.00
2013-11-17,63.3,58.4,47.3,59.1,54.8,38.7,95,88,62,29.69,29.13,25,8,42,1.20
2013-11-18,47.5,40.8,34.7,38.7,27.7,18.4,72,59,51,30.05,29.41,18,10,31,0.03
2013-11-19,43.0,35.3,27.9,20.4,17.9,14.3,67,50,31,30.33,30.05,10,3,19,0.00
2013-11-20,44.1,35.2,25.7,30.4,22.6,17.3,79,61,41,30.37,30.14,14,4,19,0.00
2013-11-21,46.2,42.6,29.8,43.1,35.7,19.5,97,78,55,30.32,30.07,11,3,17,0.29
2013-11-22,45.3,39.2,27.7,44.5,34.4,19.2,98,84,60,30.29,30.03,14,3,19,0.04
2013-11-23,30.2,25.0,17.8,21.3,9.9,-4.5,80,55,24,30.47,30.20,21,6,26,0.00
2013-11-24,25.9,18.9,14.0,8.5,1.6,-5.4,66,47,27,30.55,30.38,13,5,15,25.57
2013-11-25,30.4,24.5,17.8,21.4,9.9,2.4,73,54,40,30.38,30.01,15,7,26,0.00
2013-11-26,34.9,31.4,28.9,24.5,22.5,20.2,78,69,60,30.04,29.84,10,4,14,0.00
2013-11-27,28.9,24.2,18.5,20.1,7.4,0.0,69,49,32,30.15,29.83,15,6,21,0.00
2013-11-28,26.4,20.8,16.9,10.8,7.1,2.6,64,55,47,30.36,30.14,3,1,4,25.57
2013-11-29,35.4,25.2,17.8,19.4,12.3,6.1,72,58,35,30.58,30.36,6,1,8,0.00
2013-11-30,45.7,34.2,27.0,23.9,19.8,14.8,67,56,40,30.47,30.02,10,4,14,0.00
2013-12-1,45.9,35.2,28.6,31.7,25.8,20.9,83,69,53,30.02,29.87,8,2,12,0.00
2013-12-2,40.1,32.9,27.1,28.5,22.7,14.7,85,67,44,29.91,29.78,6,1,8,0.00
2013-12-3,38.3,34.4,26.8,35.1,28.0,14.8,88,77,60,29.83,29.73,8,3,11,0.04
2013-12-4,58.1,46.5,37.6,52.3,42.5,34.9,92,86,80,29.79,29.50,10,3,14,0.00
2013-12-5,58.8,43.6,30.6,53.7,32.7,17.3,86,66,50,30.07,29.49,15,7,21,0.00
2013-12-6,30.6,26.5,20.8,18.0,11.4,6.4,61,52,45,30.34,30.05,10,4,13,0.00
2013-12-7,25.5,19.3,12.9,9.6,2.3,-0.7,64,47,33,30.57,30.34,11,3,14,0.00
2013-12-8,28.4,19.8,11.3,24.8,9.3,-0.8,86,63,50,30.56,29.90,11,4,17,0.00
2013-12-9,28.6,25.5,18.7,25.2,16.0,4.4,87,68,50,30.06,29.80,17,7,21,0.00
2013-12-10,22.1,17.6,10.0,6.6,0.9,-12.5,59,48,24,30.12,29.88,21,6,28,0.00
2013-12-11,23.7,16.5,7.9,14.7,3.6,-7.1,70,56,45,30.42,30.12,11,4,16,0.00
2013-12-12,17.2,12.1,3.6,2.6,-4.9,-14.5,66,46,22,30.43,30.12,15,5,18,0.00
2013-12-13,29.8,23.1,16.7,16.1,10.7,2.6,64,58,51,30.18,30.08,12,3,19,0.00
2013-12-14,23.5,19.7,18.7,16.1,12.9,9.5,81,74,60,30.19,29.73,14,6,21,0.00
2013-12-15,24.8,19.9,14.5,18.3,11.1,0.7,79,69,46,29.98,29.73,15,6,21,0.00
2013-12-16,20.1,12.7,3.2,8.0,1.6,-5.6,69,60,48,30.12,29.92,5,1,8,0.00
2013-12-17,25.2,20.7,14.0,17.8,13.0,6.0,78,72,67,29.94,29.81,11,4,14,0.00
2013-12-18,32.2,24.0,19.4,20.2,14.0,8.3,80,66,48,30.05,29.84,12,4,18,0.01
2013-12-19,41.5,33.0,21.4,30.7,22.5,8.3,75,65,56,29.89,29.79,6,2,9,0.02
2013-12-20,41.2,37.2,34.3,39.5,34.7,29.0,95,90,75,29.81,29.63,4,1,7,0.28
2013-12-21,37.8,34.0,32.5,37.0,32.0,30.2,97,92,91,29.76,29.54,13,3,19,0.74
2013-12-22,38.3,34.7,32.5,34.3,31.0,28.7,92,86,72,29.87,29.44,15,5,22,0.28
2013-12-23,34.0,28.4,19.8,29.7,17.8,7.3,85,65,50,30.25,29.87,13,6,17,0.00
2013-12-24,21.0,15.1,9.7,8.3,0.8,-2.5,63,53,39,30.49,30.24,13,5,17,0.00
2013-12-25,24.4,19.3,9.7,18.9,10.5,-1.7,79,68,56,30.46,30.04,15,4,21,0.00
2013-12-26,61.7,26.0,23.9,30.0,15.9,9.6,81,66,30,30.23,29.96,11,4,17,26.96
2013-12-27,40.3,33.1,25.2,29.2,24.0,15.4,76,69,59,30.23,30.00,13,3,18,0.00
2013-12-28,47.7,38.8,32.2,34.1,29.1,24.7,77,68,56,30.05,29.81,11,4,17,0.00
2013-12-29,43.9,34.2,23.4,30.1,24.3,12.1,82,67,53,29.93,29.58,14,5,20,0.00
2013-12-30,23.4,19.4,15.8,12.7,2.0,-4.2,63,46,38,30.20,29.93,12,4,20,0.00
2013-12-31,20.3,16.4,14.0,9.6,4.0,-1.5,70,58,40,30.27,30.00,13,6,19,0.00
2014-1-1,16.0,13.8,12.4,7.3,4.9,2.9,71,67,63,30.32,30.14,14,4,17,0.00
2014-1-2,15.3,11.9,3.2,7.2,1.8,-12.4,71,63,44,30.24,29.99,19,8,23,0.00